Time;durP1;ratioP1;P1;durP2;ratioP2;P2;SDS_P1;SDS_P2;PMS_P1;PMS_P2;Temp;Humidity;BMP_temperature;BMP_pressure;BME280_temperature;BME280_humidity;BME280_pressure;Samples;Min_cycle;Max_cycle;Signal;HPM_P1;HPM_P2
2022/03/25 00:00:56;;;;;;;25.27;12.00;;;;;;;4.76;57.23;102425.53;5063849;28;20052;-68
2022/03/25 00:03:23;;;;;;;26.17;11.13;;;;;;;4.83;57.49;102435.03;5068194;28;20160;-69
2022/03/25 00:05:50;;;;;;;25.45;10.98;;;;;;;4.87;56.80;102431.56;5085427;28;20097;-68
2022/03/25 00:08:17;;;;;;;25.33;12.10;;;;;;;4.93;57.25;102432.41;5089738;28;20052;-68
2022/03/25 00:10:44;;;;;;;26.00;11.85;;;;;;;4.93;57.54;102429.81;5083265;28;20046;-68
2022/03/25 00:13:10;;;;;;;28.65;12.45;;;;;;;4.88;57.98;102441.09;5075703;28;20047;-68
2022/03/25 00:15:37;;;;;;;23.02;11.38;;;;;;;4.86;57.98;102432.44;5067860;28;20094;-68
2022/03/25 00:18:03;;;;;;;24.48;11.57;;;;;;;4.55;58.82;102432.44;5061091;28;20086;-68
2022/03/25 00:20:30;;;;;;;27.73;11.10;;;;;;;4.60;58.65;102431.59;5058652;28;20084;-69
2022/03/25 00:22:57;;;;;;;22.95;10.65;;;;;;;4.50;58.92;102429.88;5049322;28;20060;-68
2022/03/25 00:25:24;;;;;;;22.27;10.02;;;;;;;4.40;59.39;102439.38;5065038;28;20113;-68
2022/03/25 00:27:50;;;;;;;23.52;10.65;;;;;;;4.49;59.17;102428.13;5056905;28;20493;-68
2022/03/25 00:30:17;;;;;;;21.27;10.02;;;;;;;4.19;59.86;102428.97;5048223;28;20069;-68
2022/03/25 00:32:43;;;;;;;19.60;9.93;;;;;;;4.16;59.70;102423.78;5049745;28;20051;-68
2022/03/25 00:35:10;;;;;;;27.02;11.35;;;;;;;4.19;59.60;102420.31;5062820;28;20101;-68
2022/03/25 00:37:37;;;;;;;21.40;9.85;;;;;;;4.30;58.79;102428.97;5069603;28;20043;-68
2022/03/25 00:40:07;;;;;;;31.92;10.45;;;;;;;4.07;59.38;102428.94;5068367;28;20041;-68
2022/03/25 00:42:35;;;;;;;23.98;10.25;;;;;;;4.21;58.70;102426.38;5069379;28;20048;-68
2022/03/25 00:45:02;;;;;;;31.10;10.73;;;;;;;4.28;58.65;102421.19;5059836;28;20048;-68
2022/03/25 00:47:28;;;;;;;21.50;9.63;;;;;;;4.22;59.02;102430.69;5069069;28;20505;-69
2022/03/25 00:49:55;;;;;;;51.67;10.45;;;;;;;3.96;59.81;102421.97;5059848;28;20131;-68
2022/03/25 00:52:21;;;;;;;25.80;10.15;;;;;;;3.93;59.68;102423.72;5052473;28;20072;-68
2022/03/25 00:54:48;;;;;;;27.13;9.80;;;;;;;3.75;60.02;102415.91;5055946;28;20055;-68
2022/03/25 00:57:16;;;;;;;24.33;10.73;;;;;;;3.65;60.12;102415.88;5056036;28;20049;-68
2022/03/25 00:59:43;;;;;;;23.73;9.40;;;;;;;3.73;59.38;102408.97;5068124;28;20433;-68
2022/03/25 01:02:09;;;;;;;25.08;10.10;;;;;;;3.78;58.84;102410.72;5054480;28;20348;-68
2022/03/25 01:04:35;;;;;;;20.17;9.45;;;;;;;3.60;58.55;102408.06;5062571;28;20060;-68
2022/03/25 01:07:02;;;;;;;22.00;9.30;;;;;;;3.67;58.46;102403.75;5068892;28;20125;-68
2022/03/25 01:09:28;;;;;;;21.52;9.63;;;;;;;3.69;59.00;102404.63;5067017;28;20919;-68
2022/03/25 01:11:55;;;;;;;23.17;9.82;;;;;;;3.73;59.51;102409.81;5066811;28;20500;-68
2022/03/25 01:14:22;;;;;;;29.52;10.15;;;;;;;3.79;58.75;102411.56;5067006;28;20498;-68
2022/03/25 01:16:49;;;;;;;19.88;9.43;;;;;;;3.81;58.66;102410.72;5067829;28;20071;-68
2022/03/25 01:19:15;;;;;;;21.95;10.77;;;;;;;3.75;59.17;102415.91;5065963;28;20095;-68
2022/03/25 01:21:42;;;;;;;34.33;10.05;;;;;;;3.75;59.17;102410.72;5049102;28;20064;-68
2022/03/25 01:24:08;;;;;;;33.55;10.57;;;;;;;3.75;58.31;102412.44;5051039;28;20078;-68
2022/03/25 01:26:34;;;;;;;20.77;10.48;;;;;;;3.73;59.34;102411.56;5058164;28;20041;-68
2022/03/25 01:29:01;;;;;;;28.42;11.65;;;;;;;3.61;60.54;102415.00;5078409;28;20059;-68
2022/03/25 01:31:28;;;;;;;21.67;10.35;;;;;;;3.70;60.40;102416.72;5065818;28;24645;-68
2022/03/25 01:33:55;;;;;;;27.20;11.30;;;;;;;3.80;60.01;102421.97;5060343;28;20094;-68
2022/03/25 01:36:21;;;;;;;30.27;10.60;;;;;;;3.80;60.17;102415.91;5068256;28;20090;-68
2022/03/25 01:38:48;;;;;;;20.92;9.30;;;;;;;3.70;60.48;102417.59;5066845;28;20047;-68
2022/03/25 01:41:17;;;;;;;27.30;11.00;;;;;;;3.59;60.99;102419.28;5065375;28;20056;-68
2022/03/25 01:43:44;;;;;;;27.77;9.85;;;;;;;3.78;60.20;102417.63;5058857;28;20493;-68
2022/03/25 01:46:10;;;;;;;38.28;12.23;;;;;;;3.68;60.58;102413.28;5052345;28;20053;-68
2022/03/25 01:48:38;;;;;;;23.27;10.00;;;;;;;3.61;60.96;102415.00;5053911;28;20066;-68
2022/03/25 01:51:04;;;;;;;30.20;10.55;;;;;;;3.41;62.44;102414.91;5059469;28;20037;-68
2022/03/25 01:53:30;;;;;;;24.52;10.85;;;;;;;3.38;62.46;102414.03;5054518;28;20057;-68
2022/03/25 01:55:58;;;;;;;24.35;11.75;;;;;;;3.52;62.03;102412.34;5056393;28;20107;-68
2022/03/25 01:58:26;;;;;;;30.88;12.07;;;;;;;3.45;63.35;102410.59;5067993;28;20055;-69
2022/03/25 02:00:53;;;;;;;24.63;11.18;;;;;;;3.51;62.83;102405.41;5064611;28;20041;-69
2022/03/25 02:03:20;;;;;;;29.38;11.23;;;;;;;3.58;63.15;102407.19;5058912;28;20065;-69
2022/03/25 02:05:48;;;;;;;27.65;11.68;;;;;;;3.51;62.27;102415.78;5071460;28;20063;-68
2022/03/25 02:08:15;;;;;;;30.73;12.90;;;;;;;3.56;62.35;102413.22;5068323;28;20041;-68
2022/03/25 02:10:43;;;;;;;29.08;12.10;;;;;;;3.60;62.34;102415.84;5070752;28;20048;-68
2022/03/25 02:13:11;;;;;;;26.40;11.18;;;;;;;3.26;62.11;102403.59;5071572;28;20544;-68
2022/03/25 02:15:39;;;;;;;23.98;11.73;;;;;;;2.86;64.80;102413.75;5067764;28;20484;-69
2022/03/25 02:18:07;;;;;;;25.83;11.55;;;;;;;2.91;65.68;102414.66;5070744;28;20043;-68
2022/03/25 02:20:34;;;;;;;26.17;11.65;;;;;;;3.06;65.57;102413.00;5059511;28;20488;-68
2022/03/25 02:23:02;;;;;;;30.92;12.38;;;;;;;3.12;64.78;102416.50;5054506;28;20036;-68
2022/03/25 02:25:30;;;;;;;25.25;12.15;;;;;;;3.28;62.89;102417.44;5057266;28;20098;-69
2022/03/25 02:27:58;;;;;;;29.85;12.52;;;;;;;3.29;62.86;102414.84;5068961;28;20036;-68
2022/03/25 02:30:25;;;;;;;28.98;12.70;;;;;;;3.24;63.03;102423.47;5069291;28;20049;-68
2022/03/25 02:32:52;;;;;;;32.33;12.82;;;;;;;3.13;63.07;102413.03;5051199;28;20456;-68
2022/03/25 02:35:18;;;;;;;26.70;12.23;;;;;;;2.97;63.83;102418.13;5067377;28;20136;-69
2022/03/25 02:37:45;;;;;;;29.90;12.18;;;;;;;3.01;63.43;102417.28;5071150;28;20114;-69
2022/03/25 02:40:12;;;;;;;32.38;12.70;;;;;;;3.15;62.71;102421.69;5068258;28;20068;-69
2022/03/25 02:42:39;;;;;;;33.85;13.68;;;;;;;3.01;63.06;102423.34;5071390;28;20416;-68
2022/03/25 02:45:08;;;;;;;36.03;13.05;;;;;;;3.02;62.49;102422.47;5071469;28;20527;-68
2022/03/25 02:47:34;;;;;;;27.80;12.82;;;;;;;3.00;62.22;102431.09;5051763;28;20478;-68
2022/03/25 02:50:00;;;;;;;26.92;12.57;;;;;;;2.97;62.18;102423.28;5056955;28;20121;-69
2022/03/25 02:52:27;;;;;;;28.38;13.25;;;;;;;2.89;62.16;102421.53;5053776;28;20098;-68
2022/03/25 02:54:53;;;;;;;26.60;13.38;;;;;;;2.93;61.98;102422.41;5056551;28;20064;-68
2022/03/25 02:57:21;;;;;;;28.48;12.52;;;;;;;2.90;61.98;102427.56;5058801;28;20133;-68
2022/03/25 02:59:47;;;;;;;31.17;12.98;;;;;;;2.80;62.64;102421.47;5067694;28;20155;-68
2022/03/25 03:02:14;;;;;;;25.63;12.35;;;;;;;2.75;62.93;102424.88;5065910;28;20044;-68
2022/03/25 03:04:40;;;;;;;29.70;13.13;;;;;;;2.79;62.40;102421.47;5060281;28;20277;-68
2022/03/25 03:07:06;;;;;;;24.70;11.88;;;;;;;2.73;62.02;102427.47;5051209;28;20071;-68
2022/03/25 03:09:33;;;;;;;26.48;13.10;;;;;;;2.76;61.47;102417.13;5050516;28;20045;-68
2022/03/25 03:11:59;;;;;;;22.15;11.98;;;;;;;2.56;61.92;102421.28;5050771;28;20053;-68
2022/03/25 03:14:27;;;;;;;25.83;12.85;;;;;;;2.50;62.79;102418.66;5049879;28;20049;-68
2022/03/25 03:16:53;;;;;;;29.58;12.73;;;;;;;2.38;63.69;102423.72;5057993;28;20068;-68
2022/03/25 03:19:19;;;;;;;31.42;13.70;;;;;;;2.19;64.33;102420.09;5062146;28;20499;-68
2022/03/25 03:21:46;;;;;;;24.52;12.82;;;;;;;2.08;64.66;102419.13;5058699;28;20049;-69
2022/03/25 03:24:12;;;;;;;24.13;12.98;;;;;;;2.16;64.18;102424.38;5056688;28;20094;-68
2022/03/25 03:26:39;;;;;;;29.83;11.93;;;;;;;2.34;63.22;102427.13;5052448;28;20153;-68
2022/03/25 03:29:05;;;;;;;28.00;13.07;;;;;;;2.47;62.97;102421.22;5069375;28;20486;-68
2022/03/25 03:31:33;;;;;;;30.88;12.98;;;;;;;2.45;63.16;102420.34;5058123;28;20044;-69
2022/03/25 03:33:59;;;;;;;28.55;12.77;;;;;;;2.49;62.25;102427.28;5051901;28;20065;-69
2022/03/25 03:36:25;;;;;;;27.55;13.30;;;;;;;2.52;61.82;102418.66;5054946;28;20098;-68
2022/03/25 03:38:52;;;;;;;24.95;11.45;;;;;;;2.30;62.81;102417.59;5065566;28;20053;-68
2022/03/25 03:41:18;;;;;;;28.58;12.30;;;;;;;1.93;64.04;102422.44;5055995;28;20516;-68
2022/03/25 03:43:44;;;;;;;30.80;12.65;;;;;;;2.15;63.60;102425.22;5068038;28;20497;-68
2022/03/25 03:46:11;;;;;;;28.50;13.07;;;;;;;2.28;63.42;102422.78;5049443;28;20053;-69
2022/03/25 03:48:39;;;;;;;30.15;13.20;;;;;;;2.31;63.21;102425.41;5053181;28;20412;-69
2022/03/25 03:51:05;;;;;;;26.65;12.07;;;;;;;2.38;61.95;102424.59;5060777;28;20130;-68
2022/03/25 03:53:32;;;;;;;32.25;12.10;;;;;;;2.51;61.73;102424.72;5061704;28;20489;-68
2022/03/25 03:55:58;;;;;;;29.27;12.88;;;;;;;2.56;62.33;102434.22;5065359;28;20044;-69
2022/03/25 03:58:24;;;;;;;26.35;11.68;;;;;;;2.47;63.20;102429.00;5052700;28;20073;-68
2022/03/25 04:00:50;;;;;;;26.77;11.75;;;;;;;2.06;64.31;102446.72;5050116;28;21438;-68
2022/03/25 04:03:17;;;;;;;24.85;10.77;;;;;;;1.76;65.28;102434.31;5059820;28;20075;-68
2022/03/25 04:05:45;;;;;;;33.03;11.52;;;;;;;1.70;65.02;102435.97;5055462;28;20044;-68
2022/03/25 04:08:11;;;;;;;28.02;10.88;;;;;;;1.88;64.63;102441.34;5055192;28;20124;-68
2022/03/25 04:10:38;;;;;;;31.95;11.45;;;;;;;1.98;64.19;102439.72;5049615;28;20048;-68
2022/03/25 04:13:04;;;;;;;37.33;11.45;;;;;;;1.91;64.22;102438.81;5069479;28;20629;-69
2022/03/25 04:15:31;;;;;;;26.70;11.02;;;;;;;1.80;64.61;102433.50;5067508;28;20044;-68
2022/03/25 04:17:58;;;;;;;42.10;12.43;;;;;;;1.71;64.60;102437.69;5049561;28;20040;-68
2022/03/25 04:20:25;;;;;;;23.73;11.73;;;;;;;1.59;64.66;102432.41;5053249;28;20144;-68
2022/03/25 04:22:53;;;;;;;33.22;11.75;;;;;;;1.62;64.20;102435.03;5050063;28;20051;-68
2022/03/25 04:25:20;;;;;;;26.38;11.45;;;;;;;1.32;65.09;102438.97;5061392;28;20072;-68
2022/03/25 04:27:48;;;;;;;26.25;11.75;;;;;;;1.47;65.04;102438.28;5056139;28;20037;-68
2022/03/25 04:30:18;;;;;;;26.58;11.10;;;;;;;1.43;64.27;102439.09;5048636;28;20045;-68
2022/03/25 04:32:44;;;;;;;29.40;11.45;;;;;;;1.51;63.64;102442.66;5057605;28;20063;-68
2022/03/25 04:35:10;;;;;;;29.92;11.07;;;;;;;1.53;63.63;102446.09;5057064;28;20168;-68
2022/03/25 04:37:37;;;;;;;33.88;11.45;;;;;;;1.35;63.74;102441.56;5050284;28;20098;-68
2022/03/25 04:40:05;;;;;;;24.15;11.27;;;;;;;0.80;66.18;102442.50;5062281;28;20106;-69
2022/03/25 04:42:32;;;;;;;34.22;11.98;;;;;;;0.46;69.06;102450.56;5045778;28;20064;-68
2022/03/25 04:44:58;;;;;;;35.35;12.30;;;;;;;0.22;71.42;102452.72;5063084;28;20117;-69
2022/03/25 04:47:24;;;;;;;35.75;12.48;;;;;;;0.25;72.14;102447.63;5048558;28;20049;-68
2022/03/25 04:49:51;;;;;;;28.05;12.57;;;;;;;0.27;72.76;102448.50;5058730;28;20044;-68
2022/03/25 04:52:17;;;;;;;29.77;12.82;;;;;;;0.45;71.35;102444.50;5053546;28;20526;-69
2022/03/25 04:54:43;;;;;;;27.77;12.38;;;;;;;0.55;70.76;102450.72;5051096;28;20056;-69
2022/03/25 04:57:11;;;;;;;25.40;12.40;;;;;;;1.04;69.04;102452.31;5048334;28;20063;-68
2022/03/25 04:59:37;;;;;;;28.52;12.32;;;;;;;1.30;68.02;102453.56;5052039;28;20110;-68
2022/03/25 05:02:04;;;;;;;29.88;12.00;;;;;;;1.19;65.92;102454.25;5054881;28;20044;-68
2022/03/25 05:04:30;;;;;;;29.55;11.55;;;;;;;1.11;65.86;102459.31;5060881;28;20083;-68
2022/03/25 05:06:56;;;;;;;28.88;11.77;;;;;;;1.29;66.02;102453.56;5050645;28;20119;-68
2022/03/25 05:09:22;;;;;;;26.52;12.00;;;;;;;1.22;67.71;102451.75;5047802;28;20547;-68
2022/03/25 05:11:49;;;;;;;30.42;12.52;;;;;;;1.19;67.01;102457.72;5064436;28;20115;-68
2022/03/25 05:14:16;;;;;;;28.17;11.98;;;;;;;1.05;67.71;102453.19;5068337;28;20048;-68
2022/03/25 05:16:43;;;;;;;24.63;12.32;;;;;;;0.65;68.43;102456.88;5069032;28;20063;-68
2022/03/25 05:19:09;;;;;;;30.10;13.27;;;;;;;0.25;71.98;102463.09;5053283;28;20076;-68
2022/03/25 05:21:37;;;;;;;35.38;14.50;;;;;;;0.21;73.39;102469.03;5053109;28;20048;-68
2022/03/25 05:24:04;;;;;;;29.95;12.23;;;;;;;0.91;71.37;102468.50;5057943;28;20054;-68
2022/03/25 05:26:30;;;;;;;30.80;13.25;;;;;;;1.28;69.58;102467.31;5061059;28;20072;-67
2022/03/25 05:28:56;;;;;;;27.17;12.75;;;;;;;1.69;67.60;102468.72;5057506;28;20065;-68
2022/03/25 05:31:24;;;;;;;27.80;12.70;;;;;;;1.64;67.39;102466.91;5056883;28;20098;-68
2022/03/25 05:33:50;;;;;;;28.00;13.02;;;;;;;1.88;66.79;102474.97;5062704;28;20094;-67
2022/03/25 05:36:16;;;;;;;31.40;13.07;;;;;;;1.39;68.57;102476.97;5068454;28;20205;-67
2022/03/25 05:38:43;;;;;;;28.10;13.57;;;;;;;1.82;68.20;102470.59;5071085;28;20080;-69
2022/03/25 05:41:09;;;;;;;29.15;13.82;;;;;;;1.87;67.74;102470.66;5066043;28;20068;-69
2022/03/25 05:43:35;;;;;;;29.65;14.40;;;;;;;2.00;67.93;102474.22;5059328;28;20040;-68
2022/03/25 05:46:03;;;;;;;45.13;14.15;;;;;;;2.00;68.14;102476.81;5071649;28;20512;-68
2022/03/25 05:48:31;;;;;;;27.95;12.50;;;;;;;1.57;69.08;102485.78;5070858;28;20057;-68
2022/03/25 05:50:57;;;;;;;29.75;12.90;;;;;;;1.28;70.32;102478.53;5051381;28;20087;-68
2022/03/25 05:53:24;;;;;;;26.65;12.52;;;;;;;1.48;69.89;102478.78;5052926;28;20044;-67
2022/03/25 05:55:50;;;;;;;31.40;13.63;;;;;;;1.56;70.24;102484.91;5068217;28;20052;-68
2022/03/25 05:58:16;;;;;;;26.70;12.93;;;;;;;1.84;69.39;102487.00;5056806;28;20065;-68
2022/03/25 06:00:42;;;;;;;29.92;13.18;;;;;;;2.25;67.33;102490.06;5068558;28;20130;-67
2022/03/25 06:03:14;;;;;;;26.95;13.73;;;;;;;2.94;65.77;102483.75;5065445;28;20044;-68
2022/03/25 06:05:42;;;;;;;28.25;13.73;;;;;;;3.37;64.64;102490.06;5059380;28;20044;-68
2022/03/25 06:08:09;;;;;;;30.00;13.38;;;;;;;3.61;64.23;102490.22;5071386;28;20094;-68
2022/03/25 06:10:35;;;;;;;36.00;13.07;;;;;;;3.68;64.09;102497.16;5066760;28;20044;-68
2022/03/25 06:13:01;;;;;;;33.67;13.23;;;;;;;3.75;64.42;102493.72;5070036;28;20072;-68
2022/03/25 06:15:28;;;;;;;43.85;14.05;;;;;;;4.47;62.57;102501.72;5060969;28;20424;-68
2022/03/25 06:17:54;;;;;;;28.90;13.18;;;;;;;4.97;61.03;102488.72;5056370;28;20055;-68
2022/03/25 06:20:23;;;;;;;28.20;13.82;;;;;;;5.48;60.29;102480.81;5051666;28;20622;-68
2022/03/25 06:22:51;;;;;;;36.58;13.98;;;;;;;5.81;59.30;102488.50;5050135;28;20045;-68
2022/03/25 06:25:18;;;;;;;26.10;13.05;;;;;;;5.98;58.90;102485.00;5055380;28;20049;-68
2022/03/25 06:27:48;;;;;;;30.80;13.63;;;;;;;6.09;59.03;102485.81;5060794;28;20152;-68
2022/03/25 06:30:15;;;;;;;39.80;15.48;;;;;;;6.35;57.41;102482.19;5068478;28;20048;-68
2022/03/25 06:32:41;;;;;;;35.83;14.30;;;;;;;6.64;57.11;102483.72;5060435;28;20052;-68
2022/03/25 06:35:08;;;;;;;34.95;13.65;;;;;;;6.99;57.22;102472.97;5057579;28;20409;-68
2022/03/25 06:37:38;;;;;;;28.38;14.35;;;;;;;7.33;55.67;102485.66;5069097;28;20064;-68
2022/03/25 06:40:07;;;;;;;30.63;14.23;;;;;;;7.82;53.90;102492.94;5055803;28;20129;-68
2022/03/25 06:42:34;;;;;;;29.73;14.43;;;;;;;7.91;56.24;102487.59;5070841;28;20516;-68
2022/03/25 06:45:00;;;;;;;32.17;15.32;;;;;;;8.15;55.53;102496.84;5055263;28;20562;-68
2022/03/25 06:47:26;;;;;;;39.63;15.07;;;;;;;8.45;55.49;102491.22;5057633;28;20071;-68
2022/03/25 06:49:53;;;;;;;31.15;15.13;;;;;;;8.91;55.30;102495.69;5051305;28;20049;-69
2022/03/25 06:52:20;;;;;;;38.03;15.13;;;;;;;9.01;53.22;102492.94;5053002;28;20044;-69
2022/03/25 06:54:47;;;;;;;32.67;14.02;;;;;;;8.75;53.59;102501.22;5052206;28;20126;-68
2022/03/25 06:57:15;;;;;;;31.48;15.30;;;;;;;8.92;54.07;102503.53;5057310;28;20061;-68
2022/03/25 06:59:42;;;;;;;31.27;15.88;;;;;;;9.12;53.26;102490.13;5054016;28;20068;-68
2022/03/25 07:02:10;;;;;;;34.00;16.58;;;;;;;9.17;52.38;102498.72;5050140;28;20049;-69
2022/03/25 07:04:37;;;;;;;36.78;16.95;;;;;;;9.28;51.97;102504.63;5050380;28;20041;-69
2022/03/25 07:07:05;;;;;;;37.03;17.52;;;;;;;9.78;52.69;102509.78;5061385;28;20078;-68
2022/03/25 07:09:32;;;;;;;47.53;16.58;;;;;;;10.04;51.76;102508.38;5068997;28;20048;-69
2022/03/25 07:12:00;;;;;;;37.35;17.77;;;;;;;9.94;52.32;102497.19;5058163;28;20045;-69
2022/03/25 07:14:29;;;;;;;32.55;16.52;;;;;;;10.55;48.73;102507.22;5069658;28;20044;-69
2022/03/25 07:16:55;;;;;;;33.67;16.40;;;;;;;11.54;46.86;102505.53;5068298;28;20046;-69
2022/03/25 07:19:25;;;;;;;27.08;15.52;;;;;;;11.21;45.63;102506.44;5069311;28;20598;-69
2022/03/25 07:21:51;;;;;;;29.88;14.68;;;;;;;11.68;44.44;102506.00;5065645;28;20075;-69
2022/03/25 07:24:18;;;;;;;31.30;15.55;;;;;;;11.59;44.92;102503.66;5068917;28;20436;-69
2022/03/25 07:26:44;;;;;;;33.90;14.35;;;;;;;11.93;43.53;102510.63;5058536;28;20041;-69
2022/03/25 07:29:11;;;;;;;27.77;14.90;;;;;;;12.88;41.45;102510.22;5060740;28;20064;-69
2022/03/25 07:31:38;;;;;;;32.75;15.23;;;;;;;12.89;42.32;102516.34;5055331;28;20357;-69
2022/03/25 07:34:04;;;;;;;28.80;15.77;;;;;;;13.20;41.86;102511.78;5052810;28;20053;-69
2022/03/25 07:36:31;;;;;;;32.15;15.80;;;;;;;13.27;43.84;102515.06;5068537;28;20129;-69
2022/03/25 07:38:57;;;;;;;31.88;14.35;;;;;;;13.58;42.34;102516.59;5069085;28;20118;-68
2022/03/25 07:41:24;;;;;;;30.77;14.95;;;;;;;13.81;42.95;102514.88;5067697;28;20075;-69
2022/03/25 07:43:52;;;;;;;34.47;15.65;;;;;;;13.92;42.19;102512.72;5070531;28;20451;-68
2022/03/25 07:46:18;;;;;;;30.85;14.00;;;;;;;14.35;41.98;102531.28;5069716;28;20102;-68
2022/03/25 07:48:46;;;;;;;29.92;15.32;;;;;;;14.44;41.46;102528.28;5069140;28;20759;-68
2022/03/25 07:51:13;;;;;;;41.10;16.05;;;;;;;14.81;38.39;102525.03;5066571;28;20072;-68
2022/03/25 07:53:39;;;;;;;35.58;15.70;;;;;;;15.32;39.20;102526.41;5050124;28;20460;-68
2022/03/25 07:56:05;;;;;;;40.90;15.27;;;;;;;15.33;39.83;102525.47;5048724;28;20405;-68
2022/03/25 07:58:32;;;;;;;43.72;16.30;;;;;;;15.80;40.65;102534.84;5049600;28;20126;-68
2022/03/25 08:00:58;;;;;;;36.25;16.02;;;;;;;15.86;40.04;102534.56;5056080;28;20052;-68
2022/03/25 08:03:25;;;;;;;35.03;16.20;;;;;;;15.72;39.34;102531.69;5059433;28;20102;-67
2022/03/25 08:05:54;;;;;;;34.70;15.75;;;;;;;16.02;39.05;102538.25;5066253;28;20044;-66
2022/03/25 08:08:20;;;;;;;37.47;16.60;;;;;;;16.50;37.38;102536.84;5090696;28;20060;-68
2022/03/25 08:10:48;;;;;;;35.40;15.48;;;;;;;16.66;37.11;102537.03;5089214;28;20068;-68
2022/03/25 08:13:15;;;;;;;24.35;16.85;;;;;;;16.86;36.39;102547.47;5079763;28;20078;-68
2022/03/25 08:15:42;;;;;;;40.85;16.75;;;;;;;16.95;36.04;102549.69;5076477;28;20045;-68
2022/03/25 08:18:10;;;;;;;38.33;17.98;;;;;;;16.95;36.05;102544.38;5065864;28;20048;-68
2022/03/25 08:20:39;;;;;;;36.95;17.23;;;;;;;16.65;38.05;102553.84;5054136;28;20054;-68
2022/03/25 08:23:08;;;;;;;34.95;17.23;;;;;;;16.85;39.47;102557.22;5058129;28;20057;-68
2022/03/25 08:28:20;;;;;;;33.75;18.33;;;;;;;17.37;37.51;102544.84;5051756;28;20056;-69
2022/03/25 08:30:47;;;;;;;26.77;15.82;;;;;;;17.98;36.34;102550.47;5050830;28;20229;-68
2022/03/25 08:33:14;;;;;;;29.40;16.00;;;;;;;18.33;35.21;102556.50;5058637;28;20439;-68
2022/03/25 08:35:42;;;;;;;38.75;17.25;;;;;;;18.91;33.62;102553.25;5051416;28;20041;-66
2022/03/25 08:38:11;;;;;;;35.72;15.55;;;;;;;19.02;32.06;102556.16;5059173;28;20122;-73
2022/03/25 08:40:39;;;;;;;35.50;16.85;;;;;;;19.05;34.90;102561.28;5070990;28;20041;-70
2022/03/25 08:43:06;;;;;;;32.58;16.25;;;;;;;18.90;32.02;102562.16;5071013;28;20520;-70
2022/03/25 08:45:33;;;;;;;37.50;17.00;;;;;;;19.04;33.79;102558.69;5056494;28;20053;-69
2022/03/25 08:48:00;;;;;;;32.55;15.80;;;;;;;19.13;33.01;102561.69;5052087;28;20049;-69
2022/03/25 08:50:29;;;;;;;34.05;16.05;;;;;;;19.37;31.55;102562.88;5051137;28;20496;-69
2022/03/25 08:52:56;;;;;;;35.85;16.17;;;;;;;19.90;30.89;102558.81;5055882;28;20049;-69
2022/03/25 08:55:29;;;;;;;28.25;16.33;;;;;;;19.93;31.32;102559.47;5065598;28;20075;-69
2022/03/25 08:57:57;;;;;;;41.75;15.90;;;;;;;19.44;28.76;102560.72;5051311;28;20049;-69
2022/03/25 09:00:25;;;;;;;31.67;15.77;;;;;;;19.60;29.04;102560.69;5051082;28;20052;-70
2022/03/25 09:02:52;;;;;;;28.80;15.27;;;;;;;19.85;31.73;102563.53;5052003;28;20064;-70
2022/03/25 09:05:18;;;;;;;32.35;16.55;;;;;;;20.20;31.23;102553.34;5065685;28;20106;-69
2022/03/25 09:07:45;;;;;;;32.88;15.32;;;;;;;20.20;28.19;102554.22;5070772;28;20056;-69
2022/03/25 09:10:16;;;;;;;27.20;15.88;;;;;;;20.34;29.11;102559.56;5068985;28;20052;-70
2022/03/25 09:12:46;;;;;;;30.85;16.33;;;;;;;20.82;30.45;102562.66;5068163;28;20045;-70
2022/03/25 09:15:14;;;;;;;31.00;15.85;;;;;;;21.05;27.97;102559.31;5049306;28;20068;-70
2022/03/25 09:17:41;;;;;;;31.50;16.83;;;;;;;21.39;27.26;102560.59;5067916;28;20101;-69
2022/03/25 09:20:14;;;;;;;27.25;16.30;;;;;;;21.40;27.26;102562.28;5068302;28;20049;-70
2022/03/25 09:22:43;;;;;;;37.28;16.27;;;;;;;21.08;28.76;102556.44;5069990;28;20033;-70
2022/03/25 09:25:12;;;;;;;27.35;15.48;;;;;;;21.73;27.76;102557.28;5049153;28;20162;-69
2022/03/25 09:27:39;;;;;;;28.58;15.55;;;;;;;22.12;29.88;102563.47;5060726;28;20044;-70
2022/03/25 09:30:09;;;;;;;31.60;16.25;;;;;;;22.06;25.86;102554.06;5067484;28;20424;-70
2022/03/25 09:32:36;;;;;;;30.35;16.08;;;;;;;22.38;28.54;102561.59;5059821;28;20051;-70
2022/03/25 09:35:16;;;;;;;35.13;16.50;;;;;;;22.66;25.46;102561.28;5061134;28;20068;-70
2022/03/25 09:37:45;;;;;;;38.97;16.58;;;;;;;22.80;26.30;102562.00;5058971;28;20415;-70
2022/03/25 09:40:14;;;;;;;29.85;16.00;;;;;;;23.02;26.55;102566.59;5060938;28;20094;-70
2022/03/25 09:42:41;;;;;;;26.63;16.10;;;;;;;23.17;26.24;102556.56;5064089;28;20056;-69
2022/03/25 09:45:11;;;;;;;36.13;18.27;;;;;;;23.07;25.27;102567.09;5065072;28;20097;-69
2022/03/25 09:47:40;;;;;;;33.55;17.38;;;;;;;23.20;28.35;102570.56;5054105;28;20390;-70
2022/03/25 09:50:11;;;;;;;31.88;17.08;;;;;;;23.44;23.49;102557.16;5053192;28;20119;-70
2022/03/25 09:52:42;;;;;;;33.90;16.95;;;;;;;23.56;26.95;102560.69;5047724;28;20048;-69
2022/03/25 09:55:09;;;;;;;31.67;16.77;;;;;;;23.31;25.00;102563.53;5049599;28;20063;-70
2022/03/25 09:57:36;;;;;;;28.95;17.20;;;;;;;23.20;25.95;102561.69;5059713;28;20061;-70
2022/03/25 10:00:05;;;;;;;35.70;18.40;;;;;;;23.60;24.76;102559.50;5068187;28;20051;-71
2022/03/25 10:02:33;;;;;;;32.42;17.95;;;;;;;23.51;23.80;102554.84;5059761;28;20048;-70
2022/03/25 10:05:01;;;;;;;31.67;16.40;;;;;;;23.27;29.84;102560.25;5064004;28;20097;-70
2022/03/25 10:07:30;;;;;;;28.25;16.00;;;;;;;22.88;27.51;102556.06;5071599;28;20051;-70
2022/03/25 10:10:08;;;;;;;27.52;14.38;;;;;;;22.48;27.33;102549.25;5060047;28;20566;-69
2022/03/25 10:12:36;;;;;;;27.77;16.02;;;;;;;21.71;27.02;102564.56;5049553;28;20110;-70
2022/03/25 10:15:14;;;;;;;23.70;14.98;;;;;;;22.03;28.14;102554.28;5053947;28;20056;-70
2022/03/25 10:18:04;;;;;;;35.30;16.05;;;;;;;23.17;31.02;102560.06;5051850;28;20060;-70
2022/03/25 10:20:33;;;;;;;32.78;18.73;;;;;;;23.58;25.91;102548.03;5053387;28;20132;-70
2022/03/25 10:23:02;;;;;;;29.63;17.75;;;;;;;23.87;29.36;102546.63;5062681;28;20048;-70
2022/03/25 10:25:40;;;;;;;30.33;16.80;;;;;;;24.01;25.57;102551.72;5059719;28;20072;-70
2022/03/25 10:28:18;;;;;;;34.90;17.48;;;;;;;23.82;27.83;102545.25;5052834;28;20053;-70
2022/03/25 10:30:47;;;;;;;34.40;18.40;;;;;;;23.46;26.28;102544.50;5053761;28;20040;-70
2022/03/25 10:33:21;;;;;;;33.75;17.70;;;;;;;22.89;27.85;102546.22;5061998;28;20071;-70
2022/03/25 10:35:56;;;;;;;28.17;17.30;;;;;;;23.31;27.86;102547.47;5068435;28;20079;-70
2022/03/25 10:38:23;;;;;;;31.15;18.00;;;;;;;23.62;27.99;102544.16;5067618;28;20734;-70
2022/03/25 10:40:51;;;;;;;33.65;17.30;;;;;;;23.93;27.58;102546.13;5070416;28;20044;-70
2022/03/25 10:43:18;;;;;;;39.33;19.77;;;;;;;23.82;28.75;102535.41;5070380;28;20103;-70
2022/03/25 10:45:45;;;;;;;30.00;18.45;;;;;;;23.67;27.45;102540.16;5070398;28;20044;-70
2022/03/25 10:48:13;;;;;;;29.52;18.42;;;;;;;23.58;26.16;102538.19;5070684;28;20075;-70
2022/03/25 10:53:36;;;;;;;39.08;18.85;;;;;;;22.90;30.05;102532.75;5053950;27;20359;-67
2022/03/25 10:56:06;;;;;;;40.42;19.95;;;;;;;22.86;30.11;102528.59;5060598;28;20065;-67
2022/03/25 10:58:34;;;;;;;26.20;18.10;;;;;;;21.89;29.10;102526.81;5065782;28;20504;-67
2022/03/25 11:01:00;;;;;;;36.90;18.65;;;;;;;22.09;32.01;102527.16;5063167;28;20056;-67
2022/03/25 11:03:27;;;;;;;29.27;18.55;;;;;;;22.52;30.16;102529.38;5067072;28;20049;-67
2022/03/25 11:05:54;;;;;;;31.40;19.30;;;;;;;22.80;30.11;102521.00;5064983;28;20041;-68
2022/03/25 11:08:21;;;;;;;34.95;19.30;;;;;;;22.54;29.20;102522.94;5064118;28;20524;-68
2022/03/25 11:10:49;;;;;;;31.67;19.17;;;;;;;23.37;29.58;102526.44;5070334;28;20047;-68
2022/03/25 11:13:18;;;;;;;36.78;19.92;;;;;;;23.26;27.72;102529.94;5084429;28;20067;-68
2022/03/25 11:15:45;;;;;;;31.20;18.58;;;;;;;23.28;27.39;102527.16;5080996;28;20045;-68
2022/03/25 11:18:12;;;;;;;31.92;19.00;;;;;;;23.01;28.65;102527.44;5083872;28;20071;-68
2022/03/25 11:20:40;;;;;;;28.15;17.10;;;;;;;22.81;30.04;102530.75;5084187;28;20048;-68